Time;durP1;ratioP1;P1;durP2;ratioP2;P2;SDS_P1;SDS_P2;PMS_P1;PMS_P2;Temp;Humidity;BMP_temperature;BMP_pressure;BME280_temperature;BME280_humidity;BME280_pressure;Samples;Min_cycle;Max_cycle;Signal;HPM_P1;HPM_P2
2023/09/08 00:00:57;;;;;;;2.90;2.10;;;18.00;99.90;;;;;;5019840;28;20199;-76
2023/09/08 00:03:23;;;;;;;3.60;2.17;;;18.00;99.90;;;;;;5019274;28;20661;-74
2023/09/08 00:05:50;;;;;;;3.00;2.67;;;18.10;99.90;;;;;;5019697;28;20433;-76
2023/09/08 00:08:15;;;;;;;1.83;1.67;;;18.10;99.90;;;;;;5019630;28;20227;-73
2023/09/08 00:10:41;;;;;;;1.83;1.73;;;18.10;99.90;;;;;;5019664;28;20808;-73
2023/09/08 00:13:07;;;;;;;2.73;2.53;;;18.20;99.90;;;;;;5019590;28;20279;-75
2023/09/08 00:15:37;;;;;;;2.73;2.37;;;18.10;99.90;;;;;;5019611;28;20508;-75
2023/09/08 00:18:02;;;;;;;3.17;2.63;;;18.00;99.90;;;;;;5019486;28;20198;-75
2023/09/08 00:20:28;;;;;;;2.97;2.33;;;17.90;99.90;;;;;;5019750;28;20410;-76
2023/09/08 00:22:54;;;;;;;2.50;2.30;;;17.80;99.90;;;;;;5019381;28;20414;-75
2023/09/08 00:25:19;;;;;;;1.90;1.83;;;17.80;99.90;;;;;;5014872;28;20255;-76
2023/09/08 00:27:45;;;;;;;3.03;2.00;;;17.80;99.90;;;;;;5016275;28;20187;-74
2023/09/08 00:30:11;;;;;;;4.33;2.93;;;17.80;99.90;;;;;;5016439;28;20172;-77
2023/09/08 00:32:37;;;;;;;3.33;3.03;;;17.80;99.90;;;;;;5016305;28;20265;-76
2023/09/08 00:35:02;;;;;;;3.50;2.77;;;17.80;99.90;;;;;;5015904;28;20945;-76
2023/09/08 00:37:28;;;;;;;4.03;3.03;;;17.80;99.90;;;;;;5016005;28;20341;-73
2023/09/08 00:39:54;;;;;;;2.13;1.93;;;17.90;99.90;;;;;;5016143;28;20246;-75
2023/09/08 00:42:19;;;;;;;2.43;2.27;;;18.00;99.90;;;;;;5016154;28;20199;-74
2023/09/08 00:44:45;;;;;;;4.70;2.53;;;17.90;99.90;;;;;;5015849;28;20209;-76
2023/09/08 00:47:11;;;;;;;4.00;2.33;;;17.90;99.90;;;;;;5015838;28;20590;-75
2023/09/08 00:49:37;;;;;;;3.43;3.13;;;17.80;99.90;;;;;;5015987;28;20650;-74
2023/09/08 00:52:03;;;;;;;3.67;3.37;;;17.70;99.90;;;;;;5015768;28;20418;-74
2023/09/08 00:54:28;;;;;;;4.30;2.40;;;17.70;99.90;;;;;;5015718;28;20253;-74
2023/09/08 00:56:59;;;;;;;3.10;2.90;;;17.70;99.90;;;;;;5015854;28;20445;-73
2023/09/08 00:59:25;;;;;;;1.87;1.77;;;17.70;99.90;;;;;;5015780;28;20179;-75
2023/09/08 01:01:51;;;;;;;3.00;2.83;;;17.70;99.90;;;;;;5015888;28;20406;-73
2023/09/08 01:04:17;;;;;;;3.80;3.47;;;17.60;99.90;;;;;;5015503;28;20509;-73
2023/09/08 01:06:45;;;;;;;2.57;2.37;;;17.70;99.90;;;;;;5015589;28;20418;-74
2023/09/08 01:09:11;;;;;;;3.13;2.93;;;17.70;99.90;;;;;;5015684;28;20625;-73
2023/09/08 01:11:37;;;;;;;2.50;2.40;;;17.80;99.90;;;;;;5015593;28;20414;-73
2023/09/08 01:14:03;;;;;;;3.10;2.80;;;17.70;99.90;;;;;;5030816;28;20442;-77
2023/09/08 01:16:28;;;;;;;1.90;1.80;;;17.80;99.90;;;;;;5015281;28;20203;-72
2023/09/08 01:18:55;;;;;;;2.57;2.47;;;17.80;99.90;;;;;;5015438;28;20179;-74
2023/09/08 01:21:59;;;;;;;2.87;2.37;;;17.70;99.90;;;;;;5015345;28;20254;-75
2023/09/08 01:24:33;;;;;;;2.13;2.03;;;17.60;99.90;;;;;;4993328;28;20804;-75
2023/09/08 01:26:59;;;;;;;2.83;1.70;;;17.70;99.90;;;;;;4993825;28;20870;-74
2023/09/08 01:29:26;;;;;;;2.17;1.83;;;17.60;99.90;;;;;;5004940;28;20468;-75
2023/09/08 01:31:52;;;;;;;2.63;2.30;;;17.60;99.90;;;;;;5015538;28;20628;-75
2023/09/08 01:34:18;;;;;;;3.70;2.50;;;17.60;99.90;;;;;;5014874;28;20439;-74
2023/09/08 01:36:45;;;;;;;1.73;1.60;;;17.60;99.90;;;;;;5014727;28;20458;-77
2023/09/08 01:39:11;;;;;;;2.73;2.20;;;17.70;99.90;;;;;;5015005;28;20419;-73
2023/09/08 01:41:37;;;;;;;2.50;2.40;;;17.70;99.90;;;;;;5014622;28;20416;-77
2023/09/08 01:44:07;;;;;;;3.50;2.70;;;17.70;99.90;;;;;;5014717;28;20713;-73
2023/09/08 01:46:34;;;;;;;2.80;2.60;;;17.70;99.90;;;;;;5014974;28;20282;-76
2023/09/08 01:48:59;;;;;;;2.20;2.00;;;17.70;99.90;;;;;;5015003;28;20485;-74
2023/09/08 01:51:25;;;;;;;2.40;2.20;;;17.60;99.90;;;;;;5014841;28;20412;-73
2023/09/08 01:53:51;;;;;;;1.97;1.87;;;17.50;99.90;;;;;;5014487;28;20257;-73
2023/09/08 01:56:16;;;;;;;2.57;1.90;;;17.50;99.90;;;;;;5014760;28;20206;-73
2023/09/08 01:58:42;;;;;;;4.03;3.17;;;17.50;99.90;;;;;;5014762;28;20255;-76
2023/09/08 02:01:07;;;;;;;1.97;1.83;;;17.40;99.90;;;;;;5014709;28;20207;-72
2023/09/08 02:03:33;;;;;;;3.10;2.07;;;17.40;99.90;;;;;;5013951;28;20186;-74
2023/09/08 02:05:59;;;;;;;4.00;2.93;;;17.40;99.90;;;;;;5014542;28;20172;-71
2023/09/08 02:08:25;;;;;;;2.37;2.07;;;17.50;99.90;;;;;;5014541;28;20186;-72
2023/09/08 02:10:50;;;;;;;2.27;2.00;;;17.60;99.90;;;;;;5014474;28;20259;-72
2023/09/08 02:13:16;;;;;;;4.03;3.67;;;17.70;99.90;;;;;;5014516;28;20179;-72
2023/09/08 02:15:41;;;;;;;3.43;3.13;;;17.70;99.90;;;;;;5014697;28;20195;-72
2023/09/08 02:18:08;;;;;;;3.83;3.53;;;17.70;99.90;;;;;;5014653;28;20612;-74
2023/09/08 02:20:36;;;;;;;3.03;2.43;;;17.70;99.90;;;;;;5013983;28;20597;-70
2023/09/08 02:23:07;;;;;;;3.13;2.73;;;17.60;99.90;;;;;;5014067;28;20473;-73
2023/09/08 02:25:33;;;;;;;3.00;2.70;;;17.60;99.90;;;;;;5013781;28;20458;-74
2023/09/08 02:27:59;;;;;;;2.93;2.60;;;17.60;99.90;;;;;;5014512;28;20412;-74
2023/09/08 02:30:25;;;;;;;3.40;3.20;;;17.60;99.90;;;;;;5029852;28;20415;-74
2023/09/08 02:32:51;;;;;;;3.17;2.07;;;17.60;99.90;;;;;;5014426;28;20465;-75
2023/09/08 02:35:16;;;;;;;2.10;2.00;;;17.50;99.90;;;;;;5014117;28;20470;-77
2023/09/08 02:37:42;;;;;;;2.10;2.00;;;17.60;99.90;;;;;;5014503;28;20195;-74
2023/09/08 02:40:08;;;;;;;2.53;2.33;;;17.60;99.90;;;;;;5014304;28;20234;-75
2023/09/08 02:42:33;;;;;;;2.97;2.77;;;17.60;99.90;;;;;;5014280;28;20171;-74
2023/09/08 02:44:59;;;;;;;7.10;3.03;;;17.60;99.90;;;;;;5014184;28;20253;-73
2023/09/08 02:47:25;;;;;;;3.80;2.23;;;17.60;99.90;;;;;;5013665;28;20179;-73
2023/09/08 02:49:51;;;;;;;4.17;3.63;;;17.70;99.90;;;;;;5012190;28;20418;-74
2023/09/08 02:52:19;;;;;;;3.30;3.00;;;17.60;99.90;;;;;;5013911;28;20614;-73
2023/09/08 02:54:45;;;;;;;2.47;2.30;;;17.60;99.90;;;;;;5013761;28;20195;-72
2023/09/08 02:57:10;;;;;;;2.37;2.27;;;17.50;99.90;;;;;;5028830;28;20808;-73
2023/09/08 02:59:36;;;;;;;5.87;2.67;;;17.50;99.90;;;;;;5014271;28;20206;-73
2023/09/08 03:02:02;;;;;;;3.23;3.03;;;17.40;99.90;;;;;;5014326;28;20618;-76
2023/09/08 03:04:27;;;;;;;2.20;2.03;;;17.40;99.90;;;;;;5013512;28;20199;-74
2023/09/08 03:06:53;;;;;;;2.97;2.77;;;17.40;99.90;;;;;;5013752;28;20171;-75
2023/09/08 03:09:19;;;;;;;3.20;2.40;;;17.40;99.90;;;;;;5013674;28;20182;-73
2023/09/08 03:11:44;;;;;;;4.73;3.43;;;17.30;99.90;;;;;;5013935;28;20179;-74
2023/09/08 03:14:10;;;;;;;3.17;2.97;;;17.20;99.90;;;;;;5011123;28;20294;-71
2023/09/08 03:16:35;;;;;;;3.10;2.30;;;17.20;99.90;;;;;;5013554;28;20211;-74
2023/09/08 03:19:01;;;;;;;3.57;2.30;;;17.30;99.90;;;;;;5012916;28;20541;-72
2023/09/08 03:21:27;;;;;;;2.97;2.50;;;17.40;99.90;;;;;;5013858;28;20179;-74
2023/09/08 03:23:52;;;;;;;2.37;1.90;;;17.40;99.90;;;;;;5013415;28;20191;-75
2023/09/08 03:26:18;;;;;;;1.57;1.30;;;17.40;99.90;;;;;;5013941;28;20194;-73
2023/09/08 03:28:43;;;;;;;2.57;2.37;;;17.40;99.90;;;;;;5013474;28;20215;-77
2023/09/08 03:31:10;;;;;;;2.87;2.67;;;17.40;99.90;;;;;;5013382;28;20580;-73
2023/09/08 03:33:35;;;;;;;3.40;3.13;;;17.30;99.90;;;;;;5013205;28;20266;-75
2023/09/08 03:36:01;;;;;;;2.70;1.90;;;17.30;99.90;;;;;;5012792;28;20534;-75
2023/09/08 03:38:27;;;;;;;3.07;2.70;;;17.30;99.90;;;;;;5013803;28;20494;-73
2023/09/08 03:40:53;;;;;;;5.10;2.77;;;17.30;99.90;;;;;;5013861;28;20179;-72
2023/09/08 03:43:18;;;;;;;3.90;2.63;;;17.30;99.90;;;;;;5013256;28;20403;-75
2023/09/08 03:45:44;;;;;;;3.50;3.20;;;17.30;99.90;;;;;;5013357;28;20214;-72
2023/09/08 03:48:10;;;;;;;2.20;1.80;;;17.40;99.90;;;;;;5013641;28;20172;-74
2023/09/08 03:50:36;;;;;;;2.33;2.13;;;17.40;99.90;;;;;;5013582;28;20705;-74
2023/09/08 03:53:01;;;;;;;3.80;2.80;;;17.50;99.90;;;;;;5013453;28;20187;-72
2023/09/08 03:55:27;;;;;;;2.40;1.80;;;17.50;99.90;;;;;;5013553;28;20262;-73
2023/09/08 03:57:53;;;;;;;3.90;2.67;;;17.40;99.90;;;;;;5013332;28;20203;-75
2023/09/08 04:00:21;;;;;;;2.30;1.73;;;17.40;99.90;;;;;;5032176;28;20187;-75
2023/09/08 04:02:51;;;;;;;5.23;3.43;;;17.40;99.90;;;;;;5017074;28;20502;-75
2023/09/08 04:05:17;;;;;;;3.20;2.97;;;17.40;99.90;;;;;;5016974;28;20501;-73
2023/09/08 04:07:43;;;;;;;2.60;2.37;;;17.40;99.90;;;;;;5017313;28;20484;-73
2023/09/08 04:10:09;;;;;;;3.20;2.30;;;17.30;99.90;;;;;;5016182;28;20902;-75
2023/09/08 04:12:34;;;;;;;3.30;2.87;;;17.20;99.90;;;;;;5016527;28;20418;-74
2023/09/08 04:15:00;;;;;;;3.60;2.70;;;17.20;99.90;;;;;;5016163;28;20606;-76
2023/09/08 04:17:26;;;;;;;2.23;2.13;;;17.20;99.90;;;;;;5016406;28;20207;-75
2023/09/08 04:19:51;;;;;;;3.00;2.70;;;17.10;99.90;;;;;;5016734;28;20611;-72
2023/09/08 04:22:17;;;;;;;2.87;2.67;;;17.20;99.90;;;;;;5016465;28;20176;-75
2023/09/08 04:24:43;;;;;;;3.13;1.90;;;17.20;99.90;;;;;;5016123;28;20290;-75
2023/09/08 04:27:10;;;;;;;3.83;3.00;;;17.30;99.90;;;;;;5016576;28;20254;-72
2023/09/08 04:29:36;;;;;;;2.53;2.33;;;17.30;99.90;;;;;;5016340;28;20597;-75
2023/09/08 04:32:08;;;;;;;2.43;2.23;;;17.30;99.90;;;;;;5016237;28;20439;-74
2023/09/08 04:34:41;;;;;;;2.77;2.53;;;17.30;99.90;;;;;;5016228;28;20715;-76
2023/09/08 04:37:07;;;;;;;4.70;3.60;;;17.40;99.90;;;;;;5016274;28;20478;-73
2023/09/08 04:39:33;;;;;;;3.07;2.77;;;17.30;99.90;;;;;;5016195;28;20406;-73
2023/09/08 04:41:59;;;;;;;3.17;2.80;;;17.20;99.90;;;;;;5016100;28;20407;-74
2023/09/08 04:44:25;;;;;;;3.47;3.03;;;17.30;99.90;;;;;;5015844;28;20918;-74
2023/09/08 04:46:52;;;;;;;3.00;2.80;;;17.30;99.90;;;;;;5016067;28;20430;-75
2023/09/08 04:49:17;;;;;;;2.60;2.40;;;17.40;99.90;;;;;;5016082;28;20176;-75
2023/09/08 04:51:44;;;;;;;4.07;2.40;;;17.40;99.90;;;;;;5016209;28;20419;-74
2023/09/08 04:54:09;;;;;;;2.90;2.63;;;17.40;99.90;;;;;;5015764;28;20191;-76
2023/09/08 04:56:35;;;;;;;5.30;3.10;;;17.50;99.90;;;;;;5015697;28;20814;-73
2023/09/08 04:59:01;;;;;;;3.47;1.73;;;17.50;99.90;;;;;;5015829;28;20179;-75
2023/09/08 05:01:27;;;;;;;2.93;2.40;;;17.60;99.90;;;;;;5015844;28;20168;-76
2023/09/08 05:03:53;;;;;;;2.20;1.93;;;17.60;99.90;;;;;;5015561;28;20187;-75
2023/09/08 05:06:19;;;;;;;2.97;2.77;;;17.60;99.90;;;;;;5015683;28;20420;-75
2023/09/08 05:08:45;;;;;;;4.83;3.57;;;17.40;99.90;;;;;;5016185;28;20486;-72
2023/09/08 05:11:11;;;;;;;2.10;2.00;;;17.40;99.90;;;;;;5014872;28;20230;-73
2023/09/08 05:13:36;;;;;;;1.70;1.43;;;17.30;99.90;;;;;;5015410;28;20414;-73
2023/09/08 05:16:10;;;;;;;3.23;2.93;;;17.30;99.90;;;;;;5015372;28;20195;-75
2023/09/08 05:18:40;;;;;;;2.57;2.40;;;17.30;99.90;;;;;;5015670;28;20170;-74
2023/09/08 05:21:06;;;;;;;4.93;4.47;;;17.40;99.90;;;;;;5015568;28;20409;-73
2023/09/08 05:23:32;;;;;;;5.00;2.07;;;17.50;99.90;;;;;;5015078;28;20465;-74
2023/09/08 05:25:58;;;;;;;4.03;3.73;;;17.60;99.90;;;;;;5015170;28;20431;-74
2023/09/08 05:28:23;;;;;;;2.30;2.20;;;17.70;99.90;;;;;;5015120;28;20627;-73
2023/09/08 05:30:55;;;;;;;3.10;2.67;;;17.70;99.90;;;;;;5015220;28;20414;-75
2023/09/08 05:33:21;;;;;;;6.00;2.70;;;17.80;99.90;;;;;;5015122;28;20188;-72
2023/09/08 05:35:47;;;;;;;2.13;2.03;;;17.70;99.90;;;;;;5014919;28;20799;-73
2023/09/08 05:38:13;;;;;;;1.57;1.47;;;17.60;99.90;;;;;;5015026;28;20167;-75
2023/09/08 05:40:38;;;;;;;2.50;2.30;;;17.60;99.90;;;;;;5015198;28;20221;-74
2023/09/08 05:43:04;;;;;;;4.17;2.90;;;17.60;99.90;;;;;;5015009;28;20433;-73
2023/09/08 05:45:32;;;;;;;2.30;2.10;;;17.70;99.90;;;;;;5014847;28;20190;-74
2023/09/08 05:47:57;;;;;;;2.63;2.13;;;17.70;99.90;;;;;;5013591;28;20662;-73
2023/09/08 05:50:23;;;;;;;2.13;2.00;;;17.70;99.90;;;;;;5014947;28;20414;-73
2023/09/08 05:52:49;;;;;;;3.33;2.93;;;17.60;99.90;;;;;;5014754;28;20167;-73
2023/09/08 05:55:14;;;;;;;3.83;2.50;;;17.60;99.90;;;;;;5014520;28;20664;-73
2023/09/08 05:57:40;;;;;;;1.87;1.57;;;17.60;99.90;;;;;;5014599;28;20204;-74
2023/09/08 06:00:07;;;;;;;3.23;2.93;;;17.70;99.90;;;;;;5014816;28;20170;-73
2023/09/08 06:02:32;;;;;;;3.23;2.97;;;17.70;99.90;;;;;;5014643;28;20407;-72
2023/09/08 06:04:58;;;;;;;3.70;2.83;;;17.70;99.90;;;;;;5014784;28;20434;-73
2023/09/08 06:07:24;;;;;;;5.53;3.20;;;17.70;99.90;;;;;;5013886;28;20183;-73
2023/09/08 06:09:49;;;;;;;3.37;2.50;;;17.80;99.90;;;;;;5014603;28;20177;-73
2023/09/08 06:12:15;;;;;;;3.00;2.80;;;17.80;99.90;;;;;;5013199;28;20320;-73
2023/09/08 06:14:41;;;;;;;2.90;2.07;;;17.90;99.90;;;;;;5014218;28;20252;-74
2023/09/08 06:17:06;;;;;;;3.03;2.33;;;18.00;99.90;;;;;;5014300;28;20199;-74
2023/09/08 06:19:32;;;;;;;3.10;2.60;;;18.20;99.90;;;;;;5014102;28;20258;-73
2023/09/08 06:21:57;;;;;;;2.70;2.50;;;18.40;99.90;;;;;;5013548;28;20176;-73
2023/09/08 06:24:24;;;;;;;4.67;3.53;;;18.70;99.90;;;;;;5013891;28;20245;-73
2023/09/08 06:26:50;;;;;;;4.43;4.00;;;19.00;99.90;;;;;;5014453;28;20254;-73
2023/09/08 06:29:15;;;;;;;3.77;3.03;;;19.20;99.90;;;;;;5014174;28;20437;-73
2023/09/08 06:31:41;;;;;;;3.40;3.03;;;19.40;99.90;;;;;;5014306;28;20214;-73
2023/09/08 06:34:07;;;;;;;4.77;3.03;;;19.70;99.90;;;;;;5013908;28;20191;-73
2023/09/08 06:36:32;;;;;;;2.07;1.97;;;19.80;99.90;;;;;;5012645;28;20746;-73
2023/09/08 06:38:58;;;;;;;3.53;3.23;;;20.00;99.90;;;;;;5014130;28;20169;-74
2023/09/08 06:41:23;;;;;;;2.80;2.60;;;20.10;99.90;;;;;;5014002;28;20183;-73
2023/09/08 06:43:49;;;;;;;3.27;2.73;;;20.30;99.90;;;;;;5013717;28;20267;-74
2023/09/08 06:46:15;;;;;;;3.67;2.70;;;20.50;99.90;;;;;;5013867;28;20178;-74
2023/09/08 06:48:41;;;;;;;3.03;2.57;;;20.70;99.90;;;;;;5013831;28;20264;-74
2023/09/08 06:51:06;;;;;;;3.67;2.33;;;20.90;99.90;;;;;;5014012;28;20633;-73
2023/09/08 06:53:32;;;;;;;2.67;2.47;;;21.20;99.90;;;;;;5013532;28;20229;-74
2023/09/08 06:55:58;;;;;;;3.97;3.10;;;21.50;99.90;;;;;;5013923;28;20179;-74
2023/09/08 06:58:23;;;;;;;2.33;2.20;;;21.90;99.90;;;;;;5013830;28;20169;-74
2023/09/08 07:00:50;;;;;;;2.77;2.17;;;22.30;99.90;;;;;;5013861;28;20170;-74
2023/09/08 07:03:16;;;;;;;3.50;3.03;;;22.70;99.90;;;;;;5013647;28;20178;-74
2023/09/08 07:05:41;;;;;;;2.80;2.57;;;23.20;99.90;;;;;;5013522;28;20409;-74
2023/09/08 07:08:07;;;;;;;2.80;2.37;;;23.80;99.90;;;;;;5014025;28;20487;-74
2023/09/08 07:10:33;;;;;;;3.33;2.20;;;24.70;99.90;;;;;;5013986;28;20642;-74
2023/09/08 07:12:58;;;;;;;3.57;3.27;;;25.50;98.30;;;;;;5013506;28;20587;-73
2023/09/08 07:15:24;;;;;;;4.13;3.83;;;26.40;96.60;;;;;;5013530;28;20204;-74
2023/09/08 07:17:49;;;;;;;2.83;2.60;;;27.20;96.70;;;;;;5013411;28;20225;-74
2023/09/08 07:20:15;;;;;;;3.50;3.03;;;27.90;94.90;;;;;;5013470;28;20171;-74
2023/09/08 07:22:41;;;;;;;4.90;3.20;;;28.70;93.90;;;;;;5013523;28;20177;-74
2023/09/08 07:25:07;;;;;;;2.60;2.40;;;29.80;92.10;;;;;;5013082;28;20217;-74
2023/09/08 07:27:34;;;;;;;3.50;2.83;;;30.90;87.80;;;;;;5013501;28;20270;-75
2023/09/08 07:29:59;;;;;;;2.90;2.70;;;32.20;82.00;;;;;;5013647;28;20501;-74
2023/09/08 07:32:25;;;;;;;2.53;2.33;;;33.60;77.10;;;;;;5013607;28;20509;-74
2023/09/08 07:34:54;;;;;;;2.47;2.37;;;35.00;70.40;;;;;;5016646;28;20186;-75
2023/09/08 07:37:24;;;;;;;5.60;2.83;;;36.20;64.20;;;;;;5017473;28;20202;-75
2023/09/08 07:39:51;;;;;;;2.17;2.07;;;37.30;60.20;;;;;;5017264;28;20411;-75
2023/09/08 07:42:17;;;;;;;3.17;2.97;;;38.30;57.00;;;;;;5017251;28;20460;-75
2023/09/08 07:44:42;;;;;;;2.53;2.43;;;39.30;55.00;;;;;;5016638;28;20922;-73
2023/09/08 07:47:08;;;;;;;2.73;2.53;;;40.20;52.70;;;;;;5017005;28;20627;-73
2023/09/08 07:49:34;;;;;;;2.43;2.33;;;40.90;50.20;;;;;;5017080;28;20666;-73
2023/09/08 07:52:00;;;;;;;3.53;2.30;;;41.50;47.90;;;;;;5017025;28;20199;-73
2023/09/08 07:54:26;;;;;;;2.10;2.00;;;41.90;46.70;;;;;;5017052;28;20449;-73
2023/09/08 07:56:52;;;;;;;2.60;2.40;;;42.10;45.20;;;;;;5016877;28;20596;-73
2023/09/08 07:59:17;;;;;;;2.37;2.27;;;42.40;45.00;;;;;;5016926;28;20163;-73
2023/09/08 08:01:43;;;;;;;2.90;2.70;;;42.80;43.90;;;;;;5017050;28;20530;-73
2023/09/08 08:04:09;;;;;;;1.90;1.80;;;43.20;42.40;;;;;;5016661;28;20190;-74
2023/09/08 08:06:34;;;;;;;2.60;2.40;;;43.40;41.80;;;;;;5016717;28;20663;-73
2023/09/08 08:09:00;;;;;;;3.97;2.50;;;43.70;41.80;;;;;;5016861;28;20170;-73
2023/09/08 08:11:26;;;;;;;2.00;1.90;;;44.00;41.20;;;;;;5016876;28;20167;-74
2023/09/08 08:13:52;;;;;;;3.13;2.93;;;44.30;40.90;;;;;;5016601;28;20662;-74
2023/09/08 08:16:18;;;;;;;2.60;2.20;;;44.40;39.50;;;;;;5016631;28;20225;-73
2023/09/08 08:18:44;;;;;;;2.47;2.27;;;44.50;39.30;;;;;;5016623;28;20175;-74
2023/09/08 08:21:09;;;;;;;3.70;2.30;;;44.50;38.50;;;;;;5016520;28;20476;-74
2023/09/08 08:23:38;;;;;;;2.20;1.90;;;44.70;39.60;;;;;;5016478;28;20173;-74
2023/09/08 08:26:04;;;;;;;1.93;1.83;;;44.90;39.10;;;;;;5016657;28;20210;-74
2023/09/08 08:28:29;;;;;;;2.20;2.00;;;45.30;38.40;;;;;;5016528;28;20179;-73
2023/09/08 08:30:56;;;;;;;2.53;2.27;;;45.30;35.40;;;;;;5016354;28;20184;-74
2023/09/08 08:33:22;;;;;;;2.30;2.10;;;45.10;36.60;;;;;;5016356;28;20171;-74
2023/09/08 08:35:52;;;;;;;2.10;1.90;;;44.80;36.40;;;;;;5016243;28;20479;-73
2023/09/08 08:38:18;;;;;;;2.70;2.50;;;44.70;36.60;;;;;;5016470;28;20171;-74
2023/09/08 08:40:43;;;;;;;2.50;2.30;;;44.60;36.70;;;;;;5016429;28;20413;-74
2023/09/08 08:43:09;;;;;;;3.20;2.90;;;44.40;36.40;;;;;;5016182;28;20198;-73
2023/09/08 08:45:37;;;;;;;2.60;2.40;;;43.90;35.80;;;;;;5015117;28;20187;-74
2023/09/08 08:48:05;;;;;;;3.23;3.03;;;43.30;36.20;;;;;;5016212;28;20206;-72
2023/09/08 08:50:32;;;;;;;3.67;2.50;;;42.50;36.50;;;;;;5015951;28;20410;-74
2023/09/08 08:52:58;;;;;;;2.73;2.53;;;41.40;39.00;;;;;;5014891;28;20433;-75
2023/09/08 08:55:29;;;;;;;2.77;2.57;;;40.60;40.10;;;;;;5014772;28;20430;-74
2023/09/08 08:58:00;;;;;;;2.70;2.50;;;40.70;40.30;;;;;;5016040;28;20266;-74
2023/09/08 09:00:27;;;;;;;3.03;2.70;;;40.60;40.20;;;;;;5015733;28;20411;-76
2023/09/08 09:02:53;;;;;;;4.20;2.70;;;40.80;40.70;;;;;;5015977;28;20447;-75
2023/09/08 09:05:19;;;;;;;2.73;2.53;;;40.70;40.80;;;;;;5015480;28;20923;-75
2023/09/08 09:07:44;;;;;;;2.73;2.53;;;40.60;40.50;;;;;;5015675;28;20462;-75
2023/09/08 09:10:10;;;;;;;2.60;2.40;;;40.90;40.50;;;;;;5015003;28;20171;-76
2023/09/08 09:12:38;;;;;;;2.37;2.17;;;41.00;40.10;;;;;;5030247;28;20623;-76
2023/09/08 09:15:08;;;;;;;2.87;2.67;;;41.20;40.40;;;;;;5014756;28;20191;-77
2023/09/08 09:17:37;;;;;;;3.03;2.83;;;41.40;39.10;;;;;;5015328;28;20407;-73
2023/09/08 09:20:17;;;;;;;3.00;2.50;;;41.60;38.50;;;;;;5015490;28;20890;-75
2023/09/08 09:22:47;;;;;;;3.10;2.80;;;41.90;38.50;;;;;;5015299;28;20471;-73
2023/09/08 09:25:26;;;;;;;2.17;2.07;;;41.70;38.30;;;;;;5014976;28;20461;-74
2023/09/08 09:28:00;;;;;;;3.10;2.87;;;41.60;38.20;;;;;;5015423;28;20485;-73
2023/09/08 09:30:26;;;;;;;2.20;2.00;;;41.70;37.60;;;;;;5015487;28;20485;-74
2023/09/08 09:33:02;;;;;;;2.97;2.70;;;41.70;38.10;;;;;;5015356;28;20425;-74
2023/09/08 09:35:42;;;;;;;2.80;2.60;;;42.10;38.00;;;;;;5015272;28;20433;-73
2023/09/08 09:38:08;;;;;;;3.30;2.40;;;42.60;37.50;;;;;;5015073;28;20410;-74
2023/09/08 09:40:34;;;;;;;2.60;2.40;;;42.50;38.20;;;;;;5013744;28;20465;-73
2023/09/08 09:43:00;;;;;;;3.13;2.83;;;42.10;37.90;;;;;;5015100;28;20783;-75
2023/09/08 09:45:26;;;;;;;3.30;3.10;;;41.10;38.80;;;;;;5014893;28;20200;-72
2023/09/08 09:47:52;;;;;;;3.47;2.90;;;39.60;40.00;;;;;;5015014;28;20203;-74
2023/09/08 09:50:40;;;;;;;2.83;2.63;;;38.10;43.60;;;;;;5014810;28;20886;-73
2023/09/08 09:53:10;;;;;;;2.87;2.10;;;36.10;44.10;;;;;;5014761;28;20812;-73
2023/09/08 09:55:40;;;;;;;2.63;2.43;;;34.80;48.10;;;;;;5014559;28;20449;-73
2023/09/08 09:58:08;;;;;;;3.30;3.00;;;33.60;51.80;;;;;;5014810;28;20792;-74
2023/09/08 10:00:35;;;;;;;3.23;2.90;;;32.70;54.20;;;;;;5014875;28;20406;-72
2023/09/08 10:03:01;;;;;;;2.70;2.50;;;32.10;55.20;;;;;;5014268;28;20924;-75
2023/09/08 10:05:27;;;;;;;2.53;2.30;;;31.40;56.90;;;;;;5014644;28;20438;-73
2023/09/08 10:07:53;;;;;;;2.93;2.73;;;30.50;59.70;;;;;;5014377;28;20813;-74
2023/09/08 10:10:20;;;;;;;2.10;2.00;;;30.20;58.80;;;;;;5014566;28;20464;-73
2023/09/08 10:12:54;;;;;;;4.27;3.37;;;30.50;57.00;;;;;;5014605;28;20403;-73
2023/09/08 10:15:24;;;;;;;2.83;2.63;;;30.50;57.70;;;;;;5014186;28;20434;-74
2023/09/08 10:17:58;;;;;;;3.57;3.27;;;31.10;57.70;;;;;;5014445;28;20766;-74
2023/09/08 10:20:24;;;;;;;2.63;2.43;;;32.30;55.90;;;;;;5014549;28;20464;-75
2023/09/08 10:23:11;;;;;;;2.70;2.50;;;33.10;53.00;;;;;;5014447;28;20418;-75
2023/09/08 10:25:43;;;;;;;3.97;2.60;;;33.00;51.90;;;;;;5029550;28;20454;-75
2023/09/08 10:28:10;;;;;;;4.80;3.50;;;33.80;52.40;;;;;;5014341;28;20450;-75
2023/09/08 10:30:36;;;;;;;3.50;3.20;;;34.20;50.90;;;;;;5014236;28;20402;-76
2023/09/08 10:33:02;;;;;;;2.83;2.63;;;34.60;51.90;;;;;;5014074;28;20898;-73
2023/09/08 10:35:29;;;;;;;3.23;2.90;;;35.20;49.00;;;;;;5014052;28;20441;-75
2023/09/08 10:38:24;;;;;;;3.10;2.90;;;35.20;49.50;;;;;;5014191;28;20406;-74
2023/09/08 10:40:51;;;;;;;3.07;2.77;;;35.20;48.70;;;;;;5012006;28;20799;-75
2023/09/08 10:43:18;;;;;;;2.60;2.40;;;34.90;48.20;;;;;;5013764;28;20836;-73
2023/09/08 10:45:45;;;;;;;3.37;3.10;;;34.70;50.10;;;;;;5013873;28;20445;-73
2023/09/08 10:48:10;;;;;;;4.20;3.60;;;34.40;49.60;;;;;;5013980;28;20472;-74
2023/09/08 10:50:43;;;;;;;3.37;2.20;;;34.20;50.30;;;;;;5013991;28;20414;-73
2023/09/08 10:53:27;;;;;;;2.83;2.63;;;33.20;50.60;;;;;;5013927;28;20191;-73
2023/09/08 10:55:53;;;;;;;3.80;3.47;;;32.50;53.80;;;;;;5013970;28;20452;-75
2023/09/08 10:58:42;;;;;;;2.80;2.60;;;32.30;52.40;;;;;;5013755;28;20417;-73
2023/09/08 11:01:12;;;;;;;4.30;2.77;;;32.30;54.30;;;;;;5014189;28;20411;-74
2023/09/08 11:03:38;;;;;;;3.50;2.63;;;32.40;52.70;;;;;;5013539;28;20406;-74
2023/09/08 11:06:13;;;;;;;3.27;2.87;;;32.40;53.90;;;;;;5012721;28;20918;-73
2023/09/08 11:08:42;;;;;;;3.33;3.03;;;32.00;52.80;;;;;;5013189;28;20206;-75
2023/09/08 11:11:07;;;;;;;6.50;3.10;;;31.60;53.90;;;;;;5013737;28;20406;-74
2023/09/08 11:13:33;;;;;;;2.17;2.07;;;31.30;56.50;;;;;;5013415;28;21033;-73
2023/09/08 11:15:59;;;;;;;3.33;3.13;;;30.70;55.20;;;;;;5013611;28;20592;-74
2023/09/08 11:18:31;;;;;;;3.50;2.67;;;30.30;59.80;;;;;;5013900;28;20217;-73
2023/09/08 11:20:57;;;;;;;2.60;2.40;;;29.70;62.70;;;;;;5013657;28;20172;-73
2023/09/08 11:23:24;;;;;;;6.17;3.17;;;29.10;65.00;;;;;;5013430;28;20771;-74
2023/09/08 11:25:54;;;;;;;3.07;2.80;;;28.70;68.90;;;;;;5012772;28;20460;-75
2023/09/08 11:28:22;;;;;;;3.47;3.17;;;28.60;67.40;;;;;;5013588;28;20437;-75
2023/09/08 11:30:49;;;;;;;3.10;2.83;;;28.90;65.00;;;;;;5013127;28;20785;-75
2023/09/08 11:33:23;;;;;;;2.47;2.27;;;28.90;64.90;;;;;;5012744;28;20464;-73
2023/09/08 11:35:49;;;;;;;3.23;2.93;;;28.90;66.00;;;;;;5013343;28;20448;-75
2023/09/08 11:38:15;;;;;;;2.97;2.77;;;28.80;68.30;;;;;;5013530;28;20509;-74
2023/09/08 11:40:41;;;;;;;3.43;3.13;;;28.50;70.40;;;;;;5013456;28;20168;-75
2023/09/08 11:43:07;;;;;;;5.33;3.00;;;28.10;70.80;;;;;;5013340;28;20175;-74
2023/09/08 11:45:36;;;;;;;4.83;3.40;;;27.70;72.90;;;;;;5013190;28;20831;-75
2023/09/08 11:48:03;;;;;;;1.73;1.63;;;27.20;74.50;;;;;;5013261;28;20458;-73
2023/09/08 11:50:30;;;;;;;3.20;2.90;;;26.80;79.60;;;;;;5013358;28;20418;-73
2023/09/08 11:52:58;;;;;;;3.40;3.10;;;27.00;80.40;;;;;;5013264;28;20443;-74
2023/09/08 11:55:24;;;;;;;3.97;3.10;;;27.40;82.90;;;;;;5013128;28;20430;-73
2023/09/08 11:58:01;;;;;;;2.70;2.50;;;27.80;78.90;;;;;;5013233;28;20422;-74
2023/09/08 12:00:27;;;;;;;3.97;3.57;;;28.40;68.90;;;;;;5013495;28;20658;-73
2023/09/08 12:02:53;;;;;;;3.07;2.83;;;29.00;66.50;;;;;;5013169;28;20498;-74
2023/09/08 12:05:22;;;;;;;3.10;2.90;;;29.50;62.60;;;;;;5012923;28;20577;-75
2023/09/08 12:07:53;;;;;;;2.50;2.33;;;29.70;62.80;;;;;;5012120;28;20726;-74
2023/09/08 12:10:19;;;;;;;3.77;3.47;;;29.70;64.80;;;;;;5012238;28;20534;-73
2023/09/08 12:12:48;;;;;;;3.20;2.90;;;29.40;63.90;;;;;;5013012;28;20406;-73
2023/09/08 12:15:43;;;;;;;3.63;3.33;;;29.40;64.50;;;;;;5012799;28;20649;-74
2023/09/08 12:18:11;;;;;;;2.47;2.30;;;29.50;65.90;;;;;;5013183;28;20414;-73
2023/09/08 12:20:39;;;;;;;4.87;2.83;;;29.40;64.70;;;;;;5015870;28;20411;-73
2023/09/08 12:23:08;;;;;;;3.77;3.50;;;29.40;67.40;;;;;;5016429;28;20394;-73
2023/09/08 12:25:45;;;;;;;3.50;3.20;;;29.10;63.80;;;;;;5016118;28;20469;-74
2023/09/08 12:28:10;;;;;;;3.40;3.10;;;29.10;65.50;;;;;;5015327;28;20457;-74
2023/09/08 12:30:36;;;;;;;8.60;3.10;;;29.10;65.20;;;;;;5031385;28;20441;-72
2023/09/08 12:33:02;;;;;;;3.83;3.07;;;29.30;69.80;;;;;;5015697;28;20632;-73
2023/09/08 12:35:29;;;;;;;5.53;3.10;;;29.60;68.40;;;;;;5015598;28;20195;-73
2023/09/08 12:38:03;;;;;;;3.57;3.27;;;29.80;67.20;;;;;;5015776;28;20464;-73
2023/09/08 12:40:30;;;;;;;7.50;3.13;;;30.00;64.30;;;;;;5015939;28;20409;-74
2023/09/08 12:42:57;;;;;;;3.73;3.40;;;30.20;63.70;;;;;;5016023;28;20492;-73
2023/09/08 12:45:26;;;;;;;3.03;2.80;;;30.40;65.50;;;;;;5015941;28;20441;-74
2023/09/08 12:47:52;;;;;;;4.30;3.47;;;30.40;62.60;;;;;;5015739;28;20485;-73